Time;durP1;ratioP1;P1;durP2;ratioP2;P2;SDS_P1;SDS_P2;PMS_P1;PMS_P2;Temp;Humidity;BMP_temperature;BMP_pressure;BME280_temperature;BME280_humidity;BME280_pressure;Samples;Min_cycle;Max_cycle;Signal;HPM_P1;HPM_P2
2022/01/18 00:01:44;;;;;;;27.50;5.23;;;;;;;;;;5032849;28;20067;-68
2022/01/18 00:04:10;;;;;;;29.10;4.90;;;;;;;;;;5033426;28;20611;-68
2022/01/18 00:06:37;;;;;;;34.87;6.07;;;;;;;;;;5037701;28;20049;-68
2022/01/18 00:09:03;;;;;;;25.90;4.83;;;;;;;;;;5034287;28;20092;-68
2022/01/18 00:11:34;;;;;;;28.53;4.03;;;;;;;;;;5031051;28;20133;-68
2022/01/18 00:14:07;;;;;;;23.23;4.13;;;;;;;;;;5019615;28;20478;-68
2022/01/18 00:16:49;;;;;;;21.50;3.63;;;;;;;;;;5033628;28;20021;-68
2022/01/18 00:19:15;;;;;;;24.23;4.40;;;;;;;;;;5033750;28;20022;-68
2022/01/18 00:22:05;;;;;;;26.83;4.70;;;;;;;;;;5033768;28;20021;-68
2022/01/18 00:24:30;;;;;;;21.47;4.73;;;;;;;;;;5033754;28;20025;-68
2022/01/18 00:26:56;;;;;;;23.93;3.97;;;;;;;;;;5053163;28;20032;-68
2022/01/18 00:29:24;;;;;;;32.23;4.50;;;;;;;;;;5038514;28;20029;-69
2022/01/18 00:32:04;;;;;;;33.00;6.07;;;;;;;;;;5036245;28;20159;-69
2022/01/18 00:34:33;;;;;;;14.93;3.10;;;;;;;;;;5034375;28;20041;-68
2022/01/18 00:39:33;;;;;;;26.63;3.83;;;;;;;;;;5032852;28;20116;-68
2022/01/18 00:41:58;;;;;;;27.10;3.73;;;;;;;;;;5030924;28;20112;-69
2022/01/18 00:44:24;;;;;;;25.50;4.67;;;;;;;;;;5026988;28;20125;-68
2022/01/18 00:46:49;;;;;;;23.40;4.10;;;;;;;;;;5013764;28;20032;-68
2022/01/18 00:49:15;;;;;;;17.10;3.20;;;;;;;;;;5041905;28;20437;-68
2022/01/18 00:51:43;;;;;;;23.20;3.20;;;;;;;;;;5035999;28;20026;-68
2022/01/18 00:54:10;;;;;;;20.70;3.07;;;;;;;;;;5032589;28;20045;-68
2022/01/18 00:56:39;;;;;;;23.73;4.37;;;;;;;;;;5031563;28;20029;-68
2022/01/18 00:59:05;;;;;;;18.70;2.77;;;;;;;;;;5031471;28;20080;-68
2022/01/18 01:01:30;;;;;;;25.97;4.90;;;;;;;;;;5012685;28;20033;-68
2022/01/18 01:03:59;;;;;;;22.47;3.37;;;;;;;;;;5032158;28;20045;-68
2022/01/18 01:06:24;;;;;;;27.20;4.10;;;;;;;;;;5028051;28;20022;-68
2022/01/18 01:08:50;;;;;;;23.30;3.27;;;;;;;;;;5026756;28;20029;-69
2022/01/18 01:11:16;;;;;;;25.47;3.63;;;;;;;;;;5030866;28;20032;-69
2022/01/18 01:13:44;;;;;;;24.63;3.73;;;;;;;;;;5031281;28;20064;-68
2022/01/18 01:16:37;;;;;;;24.60;3.77;;;;;;;;;;5032483;28;20060;-68
2022/01/18 01:33:04;;;;;;;21.47;3.43;;;;;;;;;;5030866;28;20174;-68
2022/01/18 01:43:28;;;;;;;22.60;3.20;;;;;;;;;;5028997;28;20036;-69
2022/01/18 01:45:54;;;;;;;20.20;2.90;;;;;;;;;;5034981;28;20033;-69
2022/01/18 01:48:20;;;;;;;17.27;2.57;;;;;;;;;;5030397;28;20075;-69
2022/01/18 01:50:50;;;;;;;22.87;3.97;;;;;;;;;;5026236;28;20547;-69
2022/01/18 01:53:17;;;;;;;27.47;3.07;;;;;;;;;;5002089;28;1084338;-68
2022/01/18 01:55:42;;;;;;;28.17;4.80;;;;;;;;;;5034268;28;20033;-68
2022/01/18 01:58:07;;;;;;;22.10;4.93;;;;;;;;;;5031906;28;20156;-68
2022/01/18 02:00:33;;;;;;;20.77;3.17;;;;;;;;;;5031372;28;20122;-68
2022/01/18 02:02:59;;;;;;;19.07;3.70;;;;;;;;;;5031865;28;20103;-69
2022/01/18 02:05:24;;;;;;;17.83;3.83;;;;;;;;;;5033013;28;20085;-69
2022/01/18 02:07:50;;;;;;;28.67;6.13;;;;;;;;;;5029967;28;20045;-68
2022/01/18 02:10:15;;;;;;;20.57;3.37;;;;;;;;;;5031772;28;20470;-69
2022/01/18 02:12:40;;;;;;;25.83;5.00;;;;;;;;;;5024401;28;20375;-68
2022/01/18 02:15:17;;;;;;;24.50;2.77;;;;;;;;;;5020460;28;20029;-68
2022/01/18 02:23:15;;;;;;;25.47;3.53;;;;;;;;;;5031458;28;20033;-68
2022/01/18 02:25:41;;;;;;;21.87;2.87;;;;;;;;;;5033181;28;20382;-68
2022/01/18 02:28:06;;;;;;;21.47;2.77;;;;;;;;;;5031005;28;20021;-68
2022/01/18 02:30:31;;;;;;;22.20;2.73;;;;;;;;;;5037432;28;20492;-69
2022/01/18 02:32:56;;;;;;;24.67;3.63;;;;;;;;;;5045518;28;20103;-68
2022/01/18 02:35:22;;;;;;;15.77;2.43;;;;;;;;;;5014174;28;20117;-69
2022/01/18 02:37:53;;;;;;;23.47;3.50;;;;;;;;;;5039201;28;20047;-68
2022/01/18 02:40:19;;;;;;;18.43;3.57;;;;;;;;;;5034932;28;20025;-69
2022/01/18 02:42:55;;;;;;;16.53;2.57;;;;;;;;;;5027607;28;20033;-68
2022/01/18 02:45:20;;;;;;;18.87;3.30;;;;;;;;;;5043324;28;20041;-68
2022/01/18 02:47:46;;;;;;;14.53;2.17;;;;;;;;;;5039859;28;20021;-68
2022/01/18 02:50:11;;;;;;;15.67;2.57;;;;;;;;;;5029078;28;20028;-68
2022/01/18 02:52:36;;;;;;;15.23;2.70;;;;;;;;;;5046231;28;20030;-67
2022/01/18 02:55:01;;;;;;;19.60;2.63;;;;;;;;;;5030634;28;20116;-68
2022/01/18 02:57:27;;;;;;;18.00;2.00;;;;;;;;;;5028255;28;20121;-68
2022/01/18 03:05:21;;;;;;;18.30;3.13;;;;;;;;;;5031799;28;20297;-67
2022/01/18 03:07:46;;;;;;;17.40;2.37;;;;;;;;;;5032235;28;20113;-66
2022/01/18 03:10:13;;;;;;;18.20;2.47;;;;;;;;;;5014136;28;20030;-67
2022/01/18 03:12:38;;;;;;;15.70;2.60;;;;;;;;;;5025386;28;20021;-67
2022/01/18 03:15:04;;;;;;;14.93;1.40;;;;;;;;;;5028963;28;20095;-68
2022/01/18 03:17:29;;;;;;;21.20;2.83;;;;;;;;;;5031972;28;20079;-68
2022/01/18 03:19:54;;;;;;;17.50;2.20;;;;;;;;;;5031398;28;20021;-68
2022/01/18 03:22:19;;;;;;;17.97;1.47;;;;;;;;;;5039707;28;20103;-68
2022/01/18 03:24:49;;;;;;;14.30;1.63;;;;;;;;;;5046878;28;20509;-68
2022/01/18 03:29:59;;;;;;;20.75;2.08;;;;;;;;;;5028892;28;20035;-68
2022/01/18 03:32:25;;;;;;;16.77;1.67;;;;;;;;;;5030323;28;20462;-68
2022/01/18 03:34:50;;;;;;;20.87;2.37;;;;;;;;;;5031330;28;20029;-68
2022/01/18 03:37:15;;;;;;;14.27;1.87;;;;;;;;;;5032308;28;20025;-68
2022/01/18 03:39:40;;;;;;;13.20;1.90;;;;;;;;;;5029341;28;20061;-68
2022/01/18 03:42:33;;;;;;;12.50;1.97;;;;;;;;;;5025120;28;20066;-68
2022/01/18 03:44:55;;;;;;;12.20;1.50;;;;;;;;;;5029361;28;20115;-68
2022/01/18 03:47:21;;;;;;;14.60;1.83;;;;;;;;;;5033868;28;20493;-68
2022/01/18 03:49:46;;;;;;;15.60;1.73;;;;;;;;;;5033383;28;20032;-68
2022/01/18 03:52:11;;;;;;;14.07;2.33;;;;;;;;;;5013995;28;20030;-68
2022/01/18 03:54:42;;;;;;;16.00;2.07;;;;;;;;;;5031058;28;20049;-68
2022/01/18 03:57:08;;;;;;;14.93;1.80;;;;;;;;;;5031519;28;20488;-68
2022/01/18 03:59:33;;;;;;;15.83;3.50;;;;;;;;;;5022105;28;20030;-68
2022/01/18 04:01:58;;;;;;;16.27;2.47;;;;;;;;;;5031938;28;20026;-68
2022/01/18 04:04:24;;;;;;;10.17;1.30;;;;;;;;;;5030811;28;20053;-69
2022/01/18 04:06:49;;;;;;;16.63;1.80;;;;;;;;;;5030272;28;20036;-68
2022/01/18 04:09:16;;;;;;;15.50;1.60;;;;;;;;;;5030028;28;20478;-68
2022/01/18 04:11:41;;;;;;;15.10;1.97;;;;;;;;;;5026572;28;20026;-68
2022/01/18 04:14:06;;;;;;;10.93;1.10;;;;;;;;;;5032412;28;20032;-68
2022/01/18 04:16:41;;;;;;;10.23;1.57;;;;;;;;;;5043992;28;20021;-68
2022/01/18 04:27:22;;;;;;;12.03;1.23;;;;;;;;;;5009657;28;20117;-69
2022/01/18 04:29:47;;;;;;;18.10;2.47;;;;;;;;;;5015050;28;20463;-69
2022/01/18 04:32:12;;;;;;;11.07;1.53;;;;;;;;;;4992333;28;20056;-68
2022/01/18 04:34:40;;;;;;;13.70;1.53;;;;;;;;;;5012893;28;20538;-68
2022/01/18 04:37:05;;;;;;;14.03;1.40;;;;;;;;;;4997430;28;20034;-68
2022/01/18 04:39:37;;;;;;;12.60;2.00;;;;;;;;;;5002878;28;20414;-68
2022/01/18 04:42:02;;;;;;;10.67;1.30;;;;;;;;;;4992422;28;20185;-68
2022/01/18 04:49:55;;;;;;;11.33;1.90;;;;;;;;;;5012692;28;20032;-68
2022/01/18 04:52:20;;;;;;;14.77;1.73;;;;;;;;;;5003676;28;20128;-68
2022/01/18 04:54:57;;;;;;;18.33;2.20;;;;;;;;;;5013495;28;20193;-68
2022/01/18 04:59:47;;;;;;;18.20;1.90;;;;;;;;;;5030652;28;20037;-68
2022/01/18 05:02:12;;;;;;;16.57;1.90;;;;;;;;;;5035232;28;20076;-68
2022/01/18 05:04:38;;;;;;;11.97;1.77;;;;;;;;;;5016911;28;20112;-68
2022/01/18 05:07:03;;;;;;;11.80;1.07;;;;;;;;;;5033924;28;20524;-68
2022/01/18 05:09:28;;;;;;;10.77;1.97;;;;;;;;;;5028482;28;20030;-68
2022/01/18 05:11:59;;;;;;;14.67;1.97;;;;;;;;;;5013611;28;20033;-68
2022/01/18 05:14:29;;;;;;;13.10;1.60;;;;;;;;;;5040428;28;20096;-68
2022/01/18 05:17:06;;;;;;;17.20;1.90;;;;;;;;;;5033445;28;20537;-68
2022/01/18 05:19:43;;;;;;;11.30;1.33;;;;;;;;;;5016052;28;20030;-68
2022/01/18 05:24:52;;;;;;;14.53;1.70;;;;;;;;;;5013996;28;20117;-68
2022/01/18 05:27:17;;;;;;;19.80;2.43;;;;;;;;;;5031547;28;20100;-66
2022/01/18 05:29:42;;;;;;;17.20;2.27;;;;;;;;;;5023552;28;20034;-67
2022/01/18 05:32:08;;;;;;;17.07;2.27;;;;;;;;;;4996370;28;20026;-67
2022/01/18 05:34:33;;;;;;;14.67;1.77;;;;;;;;;;5009778;28;20029;-67
2022/01/18 05:36:58;;;;;;;14.90;1.37;;;;;;;;;;5054567;28;20086;-69
2022/01/18 05:39:23;;;;;;;16.43;1.90;;;;;;;;;;5030579;28;20060;-67
2022/01/18 05:41:48;;;;;;;9.13;3.03;;;;;;;;;;5028923;28;20088;-67
2022/01/18 05:44:14;;;;;;;16.13;1.60;;;;;;;;;;5045555;28;20021;-67
2022/01/18 05:46:39;;;;;;;15.93;2.07;;;;;;;;;;5046093;28;20063;-67
2022/01/18 05:49:04;;;;;;;8.80;2.10;;;;;;;;;;5036373;28;20049;-66
2022/01/18 05:51:30;;;;;;;13.30;2.43;;;;;;;;;;5034980;28;20025;-67
2022/01/18 05:53:56;;;;;;;20.20;2.23;;;;;;;;;;5042018;28;20053;-67
2022/01/18 05:56:21;;;;;;;18.90;2.73;;;;;;;;;;5034242;28;20041;-67
2022/01/18 05:58:48;;;;;;;9.97;1.40;;;;;;;;;;5032908;28;20041;-67
2022/01/18 06:01:14;;;;;;;12.53;1.50;;;;;;;;;;5028903;28;20029;-67
2022/01/18 06:03:54;;;;;;;18.83;1.87;;;;;;;;;;5036954;28;20036;-67
2022/01/18 06:09:03;;;;;;;11.77;2.10;;;;;;;;;;5031056;28;20071;-68
2022/01/18 06:11:29;;;;;;;19.77;2.63;;;;;;;;;;5030213;28;20053;-67
2022/01/18 06:13:54;;;;;;;18.07;2.27;;;;;;;;;;5036136;28;20055;-67
2022/01/18 06:16:19;;;;;;;19.90;2.23;;;;;;;;;;5039931;28;20025;-68
2022/01/18 06:18:44;;;;;;;14.37;1.80;;;;;;;;;;5037413;28;20024;-67
2022/01/18 06:21:10;;;;;;;15.13;2.27;;;;;;;;;;5047406;28;20123;-68
2022/01/18 06:23:35;;;;;;;12.00;2.07;;;;;;;;;;5030803;28;20076;-67
2022/01/18 06:26:03;;;;;;;15.63;1.77;;;;;;;;;;5025158;28;20029;-67
2022/01/18 06:28:28;;;;;;;15.00;2.37;;;;;;;;;;5028016;28;20371;-67
2022/01/18 06:30:54;;;;;;;19.20;2.07;;;;;;;;;;5029035;28;20081;-67
2022/01/18 06:33:19;;;;;;;20.50;2.13;;;;;;;;;;5027638;28;20021;-67
2022/01/18 06:35:44;;;;;;;19.97;2.07;;;;;;;;;;5032094;28;20025;-67
2022/01/18 06:38:10;;;;;;;13.03;2.00;;;;;;;;;;5027379;28;20028;-67
2022/01/18 06:40:35;;;;;;;20.40;3.00;;;;;;;;;;5040862;28;20156;-68
2022/01/18 06:43:00;;;;;;;18.53;2.93;;;;;;;;;;5009353;28;20048;-67
2022/01/18 06:45:26;;;;;;;12.93;2.13;;;;;;;;;;5028281;28;20501;-67
2022/01/18 06:47:51;;;;;;;17.07;2.83;;;;;;;;;;5028510;28;20032;-68
2022/01/18 06:50:16;;;;;;;16.37;1.80;;;;;;;;;;5033514;28;20029;-68
2022/01/18 06:52:41;;;;;;;17.00;3.90;;;;;;;;;;5029897;28;20033;-68
2022/01/18 06:55:07;;;;;;;17.10;2.50;;;;;;;;;;5027280;28;20087;-68
2022/01/18 06:57:32;;;;;;;19.23;3.07;;;;;;;;;;5037334;28;20029;-68
2022/01/18 06:59:57;;;;;;;15.57;2.93;;;;;;;;;;5026841;28;20462;-68
2022/01/18 07:02:23;;;;;;;15.73;3.27;;;;;;;;;;5028608;28;20025;-68
2022/01/18 07:04:48;;;;;;;13.80;3.00;;;;;;;;;;5021379;28;20096;-68
2022/01/18 07:07:13;;;;;;;19.67;2.50;;;;;;;;;;5019620;28;20749;-67
2022/01/18 07:09:38;;;;;;;16.03;2.70;;;;;;;;;;5025536;28;20030;-68
2022/01/18 07:12:09;;;;;;;17.23;2.77;;;;;;;;;;5016940;28;20045;-67
2022/01/18 07:14:35;;;;;;;15.83;3.30;;;;;;;;;;5021038;28;20083;-66
2022/01/18 07:17:00;;;;;;;15.93;2.70;;;;;;;;;;5032038;28;20466;-66
2022/01/18 07:19:25;;;;;;;11.67;2.07;;;;;;;;;;5031609;28;20031;-66
2022/01/18 07:21:51;;;;;;;14.10;2.10;;;;;;;;;;5032508;28;20089;-66
2022/01/18 07:24:18;;;;;;;11.93;3.00;;;;;;;;;;5022106;28;20033;-66
2022/01/18 07:26:46;;;;;;;18.17;2.97;;;;;;;;;;5040070;28;20032;-66
2022/01/18 07:29:11;;;;;;;15.03;3.13;;;;;;;;;;5042478;28;20010;-65
2022/01/18 07:31:36;;;;;;;19.17;3.63;;;;;;;;;;5031078;28;20029;-65
2022/01/18 07:34:01;;;;;;;17.17;3.27;;;;;;;;;;5031217;28;20030;-65
2022/01/18 07:36:27;;;;;;;19.40;3.83;;;;;;;;;;5033329;28;20029;-66
2022/01/18 07:38:52;;;;;;;16.00;3.30;;;;;;;;;;5019176;28;20029;-65
2022/01/18 07:41:17;;;;;;;18.10;3.63;;;;;;;;;;5030186;28;20393;-66
2022/01/18 07:43:43;;;;;;;18.47;4.00;;;;;;;;;;5017310;28;20116;-65
2022/01/18 07:46:09;;;;;;;16.87;3.67;;;;;;;;;;5031413;28;20022;-66
2022/01/18 07:48:34;;;;;;;15.27;4.28;;;;;;;;;;5032374;28;20017;-65
2022/01/18 07:50:59;;;;;;;17.10;4.18;;;;;;;;;;5040500;28;20067;-66
2022/01/18 07:53:25;;;;;;;18.07;4.13;;;;;;;;;;5035406;28;20100;-66
2022/01/18 07:55:50;;;;;;;14.93;4.93;;;;;;;;;;5031123;28;20084;-66
2022/01/18 07:58:16;;;;;;;16.60;7.00;;;;;;;;;;5022292;28;20021;-67
2022/01/18 08:00:41;;;;;;;14.20;4.40;;;;;;;;;;5014144;28;20597;-67
2022/01/18 08:03:06;;;;;;;16.83;5.07;;;;;;;;;;5027065;28;20380;-67
2022/01/18 08:05:32;;;;;;;17.87;4.90;;;;;;;;;;5040511;28;20120;-67
2022/01/18 08:07:57;;;;;;;16.67;5.77;;;;;;;;;;5034951;28;20397;-66
2022/01/18 08:10:23;;;;;;;15.80;5.80;;;;;;;;;;5018772;28;20113;-67
2022/01/18 08:12:48;;;;;;;14.23;5.60;;;;;;;;;;5028038;28;20478;-66
2022/01/18 08:15:18;;;;;;;14.47;6.50;;;;;;;;;;5030891;28;20052;-67
2022/01/18 08:17:45;;;;;;;16.57;5.67;;;;;;;;;;5034233;28;20063;-66
2022/01/18 08:20:13;;;;;;;18.30;7.37;;;;;;;;;;5027771;28;20022;-67
2022/01/18 08:22:39;;;;;;;19.83;7.63;;;;;;;;;;5015348;28;20029;-67
2022/01/18 08:25:05;;;;;;;19.73;6.70;;;;;;;;;;5034214;28;20024;-66
2022/01/18 08:27:30;;;;;;;13.77;5.67;;;;;;;;;;5020532;28;20026;-67
2022/01/18 08:29:55;;;;;;;13.57;6.53;;;;;;;;;;5036209;28;20224;-67
2022/01/18 08:32:20;;;;;;;13.03;5.93;;;;;;;;;;5026626;28;20029;-66
2022/01/18 08:34:46;;;;;;;13.63;5.67;;;;;;;;;;5035088;28;20104;-67
2022/01/18 08:37:11;;;;;;;13.13;6.25;;;;;;;;;;5032739;28;20033;-67
2022/01/18 08:39:36;;;;;;;13.13;6.22;;;;;;;;;;5034938;28;20405;-67
2022/01/18 08:42:02;;;;;;;12.83;6.63;;;;;;;;;;5024956;28;20030;-67
2022/01/18 08:44:27;;;;;;;13.13;6.60;;;;;;;;;;5015066;28;20029;-67
2022/01/18 08:46:52;;;;;;;18.85;6.90;;;;;;;;;;5020566;28;20021;-67
2022/01/18 08:49:17;;;;;;;12.32;5.45;;;;;;;;;;5022719;28;20463;-67
2022/01/18 08:51:44;;;;;;;12.40;5.72;;;;;;;;;;5030574;28;20474;-67
2022/01/18 08:54:09;;;;;;;10.80;4.75;;;;;;;;;;5032394;28;20053;-67
2022/01/18 08:56:34;;;;;;;13.20;5.40;;;;;;;;;;5032841;28;20456;-67
2022/01/18 08:58:59;;;;;;;10.57;5.00;;;;;;;;;;5013445;28;20367;-67
2022/01/18 09:01:25;;;;;;;11.07;5.18;;;;;;;;;;5023444;28;20112;-67
2022/01/18 09:03:50;;;;;;;10.30;5.63;;;;;;;;;;5031238;28;20044;-67
2022/01/18 09:06:16;;;;;;;13.20;5.47;;;;;;;;;;5022339;28;20462;-69
2022/01/18 09:08:42;;;;;;;13.32;6.10;;;;;;;;;;5032861;28;20030;-67
2022/01/18 09:11:07;;;;;;;11.18;5.50;;;;;;;;;;5032353;28;20359;-66
2022/01/18 09:13:34;;;;;;;15.30;5.50;;;;;;;;;;5019892;28;20055;-65
2022/01/18 09:16:00;;;;;;;14.23;5.53;;;;;;;;;;5015120;28;20018;-67
2022/01/18 09:18:25;;;;;;;8.10;5.22;;;;;;;;;;5014521;28;20429;-67
2022/01/18 09:20:50;;;;;;;9.88;4.93;;;;;;;;;;5036209;28;20050;-67
2022/01/18 09:23:16;;;;;;;12.02;6.22;;;;;;;;;;5030880;28;20462;-67
2022/01/18 09:25:42;;;;;;;11.90;5.28;;;;;;;;;;5014643;28;20103;-67
2022/01/18 09:28:07;;;;;;;16.15;5.75;;;;;;;;;;5029630;28;20018;-65
2022/01/18 09:30:34;;;;;;;9.25;4.32;;;;;;;;;;5039287;28;20013;-66
2022/01/18 09:32:59;;;;;;;13.27;3.65;;;;;;;;;;5029016;28;21755;-66
2022/01/18 09:35:25;;;;;;;9.57;4.35;;;;;;;;;;5019976;28;20098;-65
2022/01/18 09:37:50;;;;;;;11.60;4.38;;;;;;;;;;5024041;28;20397;-66
2022/01/18 09:40:19;;;;;;;7.75;3.20;;;;;;;;;;5025120;28;20120;-65
2022/01/18 09:42:45;;;;;;;10.18;4.15;;;;;;;;;;5016858;28;20017;-66
2022/01/18 09:45:11;;;;;;;6.78;3.00;;;;;;;;;;5023941;28;20032;-67
2022/01/18 09:47:37;;;;;;;9.88;3.95;;;;;;;;;;5018017;28;20420;-66
2022/01/18 09:50:04;;;;;;;9.35;3.92;;;;;;;;;;5021367;28;20029;-66
2022/01/18 09:52:30;;;;;;;8.05;3.65;;;;;;;;;;5031145;28;20032;-66
2022/01/18 09:54:55;;;;;;;7.15;3.33;;;;;;;;;;5027362;28;20066;-66
2022/01/18 09:57:20;;;;;;;9.32;3.72;;;;;;;;;;5012495;28;20061;-66
2022/01/18 09:59:45;;;;;;;7.80;3.63;;;;;;;;;;5013675;28;20046;-66
2022/01/18 10:02:11;;;;;;;6.35;3.13;;;;;;;;;;5038816;28;20155;-67
2022/01/18 10:04:43;;;;;;;6.38;3.20;;;;;;;;;;5032863;28;20032;-66
2022/01/18 10:07:08;;;;;;;6.32;3.40;;;;;;;;;;5030130;28;20014;-66
2022/01/18 10:09:34;;;;;;;6.60;3.50;;;;;;;;;;5015310;28;20021;-65
2022/01/18 10:12:00;;;;;;;9.07;3.75;;;;;;;;;;5021486;28;20052;-66
2022/01/18 10:14:25;;;;;;;7.15;3.95;;;;;;;;;;5028012;28;20017;-66
2022/01/18 10:16:50;;;;;;;9.40;5.13;;;;;;;;;;5010299;28;20030;-65
2022/01/18 10:19:27;;;;;;;7.03;4.38;;;;;;;;;;5012348;28;20022;-66
2022/01/18 10:21:54;;;;;;;10.57;4.40;;;;;;;;;;5032797;28;20059;-66
2022/01/18 10:24:22;;;;;;;5.68;3.40;;;;;;;;;;5013863;28;20025;-66
2022/01/18 10:26:49;;;;;;;6.13;3.85;;;;;;;;;;5032864;28;20032;-66
2022/01/18 10:29:15;;;;;;;4.88;3.28;;;;;;;;;;5028860;28;20080;-66
2022/01/18 10:31:45;;;;;;;7.28;3.67;;;;;;;;;;5031245;28;20450;-66
2022/01/18 10:37:01;;;;;;;7.38;4.78;;;;;;;;;;5020919;28;20037;-66
2022/01/18 10:39:31;;;;;;;4.68;2.80;;;;;;;;;;5023556;28;20037;-66
2022/01/18 10:41:57;;;;;;;5.72;3.25;;;;;;;;;;5043005;28;20036;-66
2022/01/18 10:44:23;;;;;;;6.65;3.67;;;;;;;;;;5025366;28;20014;-66
2022/01/18 10:46:49;;;;;;;6.07;3.40;;;;;;;;;;5027768;28;20474;-66
2022/01/18 10:49:26;;;;;;;5.78;3.70;;;;;;;;;;5047321;28;20116;-66
2022/01/18 10:52:04;;;;;;;5.25;3.45;;;;;;;;;;5023097;28;20473;-66
2022/01/18 10:54:44;;;;;;;4.70;2.58;;;;;;;;;;5019118;28;20497;-66
2022/01/18 10:57:11;;;;;;;5.72;2.92;;;;;;;;;;5031683;28;20032;-66
2022/01/18 10:59:38;;;;;;;6.18;3.42;;;;;;;;;;5027073;28;20024;-66
2022/01/18 11:02:10;;;;;;;4.90;2.88;;;;;;;;;;5029063;28;20025;-66
2022/01/18 11:04:35;;;;;;;7.07;3.33;;;;;;;;;;5031658;28;20522;-66
2022/01/18 11:07:04;;;;;;;9.07;4.35;;;;;;;;;;5031850;28;20165;-67
2022/01/18 11:09:29;;;;;;;6.43;3.97;;;;;;;;;;5037028;28;20017;-66
2022/01/18 11:11:54;;;;;;;6.13;3.42;;;;;;;;;;5027784;28;20359;-67
2022/01/18 11:14:21;;;;;;;7.30;3.65;;;;;;;;;;5042227;28;20113;-67
2022/01/18 11:16:48;;;;;;;4.45;2.90;;;;;;;;;;5045997;28;20029;-66
2022/01/18 11:19:30;;;;;;;8.27;3.78;;;;;;;;;;5032342;28;20060;-66
2022/01/18 11:21:56;;;;;;;6.40;3.83;;;;;;;;;;5017725;28;20033;-66
2022/01/18 11:24:21;;;;;;;6.13;3.53;;;;;;;;;;5028714;28;20508;-65
2022/01/18 11:26:48;;;;;;;6.65;3.40;;;;;;;;;;5029549;28;20025;-65
2022/01/18 11:29:16;;;;;;;5.30;3.15;;;;;;;;;;5032342;28;20013;-66
2022/01/18 11:31:44;;;;;;;5.43;2.83;;;;;;;;;;5012128;28;20046;-66
2022/01/18 11:34:10;;;;;;;7.13;3.33;;;;;;;;;;5030668;28;20083;-66
2022/01/18 11:36:39;;;;;;;5.57;2.95;;;;;;;;;;5030781;28;20021;-66
2022/01/18 11:39:06;;;;;;;6.78;2.40;;;;;;;;;;5030311;28;20070;-66
2022/01/18 11:41:32;;;;;;;6.18;2.42;;;;;;;;;;5026708;28;20041;-66
2022/01/18 11:43:59;;;;;;;3.38;2.60;;;;;;;;;;5021066;28;20037;-66
2022/01/18 11:46:32;;;;;;;6.05;2.83;;;;;;;;;;5031188;28;20024;-66
2022/01/18 11:49:05;;;;;;;4.18;2.40;;;;;;;;;;5030240;28;20370;-66
2022/01/18 11:51:49;;;;;;;7.22;2.10;;;;;;;;;;5031333;28;20470;-66
2022/01/18 11:54:21;;;;;;;2.47;1.92;;;;;;;;;;5031114;28;20056;-66
2022/01/18 11:56:46;;;;;;;5.88;1.70;;;;;;;;;;5034692;28;20025;-66
2022/01/18 11:59:14;;;;;;;4.50;1.30;;;;;;;;;;5033415;28;20366;-66
2022/01/18 12:01:47;;;;;;;2.95;1.30;;;;;;;;;;5034469;28;20025;-66
2022/01/18 12:04:12;;;;;;;7.10;1.60;;;;;;;;;;5029480;28;20025;-66
2022/01/18 12:06:45;;;;;;;3.47;1.50;;;;;;;;;;5017701;28;20083;-65
2022/01/18 12:09:29;;;;;;;6.55;1.73;;;;;;;;;;5033413;28;20022;-66
2022/01/18 12:11:56;;;;;;;5.45;1.80;;;;;;;;;;5016847;28;20021;-66
2022/01/18 12:14:31;;;;;;;2.55;1.83;;;;;;;;;;5032412;28;20424;-65
2022/01/18 12:16:56;;;;;;;2.78;1.60;;;;;;;;;;5027762;28;20104;-65
2022/01/18 12:19:40;;;;;;;3.80;1.40;;;;;;;;;;5022832;28;20121;-66
2022/01/18 12:22:05;;;;;;;7.75;3.63;;;;;;;;;;5024307;28;20447;-66
2022/01/18 12:24:31;;;;;;;3.72;1.50;;;;;;;;;;5024581;28;20031;-65
2022/01/18 12:27:02;;;;;;;3.78;1.50;;;;;;;;;;5028241;28;20024;-66
2022/01/18 12:34:25;;;;;;;4.18;2.30;;;;;;;;;;5028536;28;20075;-66
2022/01/18 12:36:51;;;;;;;3.88;2.22;;;;;;;;;;5043188;28;20030;-66
2022/01/18 12:39:16;;;;;;;5.32;2.53;;;;;;;;;;5034607;28;20101;-66
2022/01/18 12:41:45;;;;;;;5.25;3.00;;;;;;;;;;5025835;28;20032;-66
2022/01/18 12:44:24;;;;;;;2.83;2.33;;;;;;;;;;5031092;28;20493;-66
2022/01/18 12:46:59;;;;;;;2.88;1.60;;;;;;;;;;5018453;28;20560;-66
2022/01/18 12:49:25;;;;;;;4.55;2.38;;;;;;;;;;5030284;28;20079;-66
2022/01/18 12:51:54;;;;;;;3.05;2.70;;;;;;;;;;5033936;28;20545;-66
2022/01/18 12:54:19;;;;;;;5.47;2.40;;;;;;;;;;5016563;28;20077;-68
2022/01/18 12:56:44;;;;;;;3.28;1.73;;;;;;;;;;5032197;28;20146;-67
2022/01/18 12:59:10;;;;;;;5.05;1.90;;;;;;;;;;5030520;28;20036;-68
2022/01/18 13:01:35;;;;;;;1.75;1.30;;;;;;;;;;5031268;28;20021;-67
2022/01/18 13:04:01;;;;;;;2.78;1.30;;;;;;;;;;5033650;28;20033;-66
2022/01/18 13:06:30;;;;;;;2.92;1.25;;;;;;;;;;5032515;28;20024;-67
2022/01/18 13:08:55;;;;;;;2.75;1.20;;;;;;;;;;5033347;28;20022;-67
2022/01/18 13:11:21;;;;;;;3.80;1.20;;;;;;;;;;5048226;28;20025;-67
2022/01/18 13:13:57;;;;;;;2.45;1.30;;;;;;;;;;5016205;28;20025;-67
2022/01/18 13:26:50;;;;;;;1.35;0.80;;;;;;;;;;5033489;28;20397;-67
2022/01/18 13:29:16;;;;;;;2.55;1.17;;;;;;;;;;5038515;28;20467;-67
2022/01/18 13:31:44;;;;;;;1.00;0.90;;;;;;;;;;5029600;28;20029;-67
2022/01/18 13:34:13;;;;;;;1.65;1.55;;;;;;;;;;5030988;28;20085;-67
2022/01/18 13:36:52;;;;;;;3.47;1.38;;;;;;;;;;5031017;28;20056;-67
2022/01/18 13:39:21;;;;;;;2.30;1.70;;;;;;;;;;5036251;28;20029;-67
2022/01/18 13:41:47;;;;;;;3.80;1.40;;;;;;;;;;5030870;28;20401;-67
2022/01/18 13:44:12;;;;;;;3.85;1.58;;;;;;;;;;5025347;28;20018;-67
2022/01/18 13:46:37;;;;;;;3.17;1.90;;;;;;;;;;5019355;28;20022;-67
2022/01/18 13:49:04;;;;;;;5.10;2.33;;;;;;;;;;5014897;28;20026;-67
2022/01/18 13:51:29;;;;;;;5.38;2.58;;;;;;;;;;5017744;28;20014;-67
2022/01/18 13:53:58;;;;;;;3.80;2.63;;;;;;;;;;5015096;28;20095;-67
2022/01/18 13:56:26;;;;;;;3.55;2.45;;;;;;;;;;5038107;28;20143;-67
2022/01/18 13:58:59;;;;;;;3.60;3.10;;;;;;;;;;5048172;28;20033;-68
2022/01/18 14:01:26;;;;;;;4.45;2.70;;;;;;;;;;5021038;28;20025;-67
2022/01/18 14:04:11;;;;;;;5.10;2.70;;;;;;;;;;5025618;28;20474;-68
2022/01/18 14:06:38;;;;;;;5.75;2.92;;;;;;;;;;5033609;28;20024;-68
2022/01/18 14:09:03;;;;;;;4.97;3.03;;;;;;;;;;5036662;28;20506;-68
2022/01/18 14:11:35;;;;;;;6.10;3.40;;;;;;;;;;5044523;28;20036;-68
2022/01/18 14:14:02;;;;;;;4.85;4.10;;;;;;;;;;5020198;28;20061;-68
2022/01/18 14:16:28;;;;;;;4.43;3.97;;;;;;;;;;5014829;28;20053;-67
2022/01/18 14:18:59;;;;;;;4.22;3.83;;;;;;;;;;5011658;28;20045;-68
2022/01/18 14:21:25;;;;;;;6.55;4.30;;;;;;;;;;5032872;28;20032;-68
2022/01/18 14:24:06;;;;;;;5.57;4.40;;;;;;;;;;5028407;28;20131;-68
2022/01/18 14:26:32;;;;;;;4.80;4.07;;;;;;;;;;5031472;28;20021;-68
2022/01/18 14:29:00;;;;;;;7.28;4.90;;;;;;;;;;5041934;28;20162;-68
2022/01/18 14:31:25;;;;;;;7.18;4.38;;;;;;;;;;5002808;28;20026;-68
2022/01/18 14:33:51;;;;;;;6.03;4.35;;;;;;;;;;5031061;28;20406;-67
2022/01/18 14:36:16;;;;;;;8.80;5.20;;;;;;;;;;5029479;28;20180;-68
2022/01/18 14:38:41;;;;;;;6.53;5.28;;;;;;;;;;5033804;28;20112;-67
2022/01/18 14:41:16;;;;;;;5.63;5.03;;;;;;;;;;5032830;28;20071;-68
2022/01/18 14:43:42;;;;;;;6.90;5.13;;;;;;;;;;5024510;28;20028;-67
2022/01/18 14:46:22;;;;;;;6.38;5.13;;;;;;;;;;5025721;28;20421;-68
2022/01/18 14:48:48;;;;;;;6.97;5.05;;;;;;;;;;5014939;28;20494;-67
2022/01/18 14:51:13;;;;;;;8.32;5.82;;;;;;;;;;5041319;28;20024;-67
2022/01/18 14:53:38;;;;;;;7.45;6.60;;;;;;;;;;5047205;28;20053;-67
2022/01/18 14:56:06;;;;;;;11.10;7.53;;;;;;;;;;5031153;28;20017;-68
2022/01/18 14:58:31;;;;;;;11.73;7.20;;;;;;;;;;5028517;28;20025;-67
2022/01/18 15:00:58;;;;;;;9.98;6.72;;;;;;;;;;5019804;28;20184;-67
2022/01/18 15:03:23;;;;;;;9.82;6.93;;;;;;;;;;5038561;28;20398;-67
2022/01/18 15:05:48;;;;;;;11.50;7.20;;;;;;;;;;5029976;28;20029;-67
2022/01/18 15:08:14;;;;;;;10.23;7.40;;;;;;;;;;5031121;28;20017;-66
2022/01/18 15:10:39;;;;;;;10.80;7.68;;;;;;;;;;5045546;28;20029;-69
2022/01/18 15:13:10;;;;;;;10.13;7.85;;;;;;;;;;5040972;28;20086;-67
2022/01/18 15:15:36;;;;;;;11.02;7.50;;;;;;;;;;5030782;28;20033;-66
2022/01/18 15:18:01;;;;;;;9.48;6.53;;;;;;;;;;5019961;28;20040;-67
2022/01/18 15:20:27;;;;;;;11.05;6.95;;;;;;;;;;5022116;28;20040;-66
2022/01/18 15:22:52;;;;;;;10.88;6.32;;;;;;;;;;5027792;28;21444;-66
2022/01/18 15:25:20;;;;;;;12.30;6.65;;;;;;;;;;5031315;28;20080;-64
2022/01/18 15:27:45;;;;;;;9.98;6.40;;;;;;;;;;5030471;28;20095;-64
2022/01/18 15:30:11;;;;;;;12.05;6.80;;;;;;;;;;5029457;28;20061;-64
2022/01/18 15:32:38;;;;;;;8.75;5.60;;;;;;;;;;5030146;28;20029;-69
2022/01/18 15:35:03;;;;;;;9.52;5.80;;;;;;;;;;5030956;28;20124;-70
2022/01/18 15:37:28;;;;;;;10.90;6.05;;;;;;;;;;5030476;28;20128;-66
2022/01/18 15:39:54;;;;;;;8.45;5.65;;;;;;;;;;5030995;28;20029;-66
2022/01/18 15:42:20;;;;;;;8.02;5.30;;;;;;;;;;5026406;28;20029;-66
2022/01/18 15:44:45;;;;;;;8.13;5.45;;;;;;;;;;5021089;28;20666;-66
2022/01/18 15:47:13;;;;;;;6.30;4.25;;;;;;;;;;5044982;28;20026;-65
2022/01/18 15:49:38;;;;;;;6.78;4.10;;;;;;;;;;5030266;28;20478;-66
2022/01/18 15:52:03;;;;;;;6.85;4.13;;;;;;;;;;5021554;28;20037;-66
2022/01/18 15:54:28;;;;;;;8.98;4.93;;;;;;;;;;5030922;28;20045;-66